sensor_id;sensor_type;location;lat;lon;timestamp;P1;durP1;ratioP1;P2;durP2;ratioP2
35917;SDS011;22011;59.912;30.300;2023-04-01T00:01:26;5.55;;;3.60;;
35917;SDS011;22011;59.912;30.300;2023-04-01T00:03:54;4.88;;;3.65;;
35917;SDS011;22011;59.912;30.300;2023-04-01T00:06:22;5.35;;;4.20;;
35917;SDS011;22011;59.912;30.300;2023-04-01T00:08:50;5.03;;;3.47;;
35917;SDS011;22011;59.912;30.300;2023-04-01T00:11:20;5.38;;;3.28;;
35917;SDS011;22011;59.912;30.300;2023-04-01T00:13:47;7.65;;;3.40;;
35917;SDS011;22011;59.912;30.300;2023-04-01T00:16:15;3.95;;;3.20;;
35917;SDS011;22011;59.912;30.300;2023-04-01T00:18:43;4.68;;;3.40;;
35917;SDS011;22011;59.912;30.300;2023-04-01T00:21:13;4.40;;;3.30;;
35917;SDS011;22011;59.912;30.300;2023-04-01T00:23:40;4.45;;;3.70;;
35917;SDS011;22011;59.912;30.300;2023-04-01T00:26:08;3.78;;;3.25;;
35917;SDS011;22011;59.912;30.300;2023-04-01T00:28:38;4.40;;;3.42;;
35917;SDS011;22011;59.912;30.300;2023-04-01T00:31:06;4.03;;;2.80;;
35917;SDS011;22011;59.912;30.300;2023-04-01T00:33:36;5.05;;;3.33;;
35917;SDS011;22011;59.912;30.300;2023-04-01T00:36:07;3.63;;;3.05;;
35917;SDS011;22011;59.912;30.300;2023-04-01T00:38:36;3.67;;;2.95;;
35917;SDS011;22011;59.912;30.300;2023-04-01T00:41:04;4.03;;;3.13;;
35917;SDS011;22011;59.912;30.300;2023-04-01T00:43:32;3.72;;;2.92;;
35917;SDS011;22011;59.912;30.300;2023-04-01T00:46:02;5.50;;;3.33;;
35917;SDS011;22011;59.912;30.300;2023-04-01T00:48:31;4.07;;;3.03;;
35917;SDS011;22011;59.912;30.300;2023-04-01T00:51:04;4.40;;;3.22;;
35917;SDS011;22011;59.912;30.300;2023-04-01T00:53:34;7.55;;;2.95;;
35917;SDS011;22011;59.912;30.300;2023-04-01T00:56:05;4.32;;;2.80;;
35917;SDS011;22011;59.912;30.300;2023-04-01T00:58:40;6.38;;;3.28;;
35917;SDS011;22011;59.912;30.300;2023-04-01T01:01:12;5.47;;;3.33;;
35917;SDS011;22011;59.912;30.300;2023-04-01T01:03:39;4.20;;;3.10;;
35917;SDS011;22011;59.912;30.300;2023-04-01T01:06:11;3.97;;;3.28;;
35917;SDS011;22011;59.912;30.300;2023-04-01T01:11:54;4.13;;;3.30;;
35917;SDS011;22011;59.912;30.300;2023-04-01T01:14:32;3.75;;;2.63;;
35917;SDS011;22011;59.912;30.300;2023-04-01T01:17:11;2.95;;;2.65;;
35917;SDS011;22011;59.912;30.300;2023-04-01T01:19:52;3.60;;;2.90;;
35917;SDS011;22011;59.912;30.300;2023-04-01T01:22:39;4.25;;;3.25;;
35917;SDS011;22011;59.912;30.300;2023-04-01T01:25:25;4.50;;;3.00;;
35917;SDS011;22011;59.912;30.300;2023-04-01T01:28:06;3.35;;;2.72;;
35917;SDS011;22011;59.912;30.300;2023-04-01T01:30:56;4.40;;;3.05;;
35917;SDS011;22011;59.912;30.300;2023-04-01T01:33:33;3.80;;;2.97;;
35917;SDS011;22011;59.912;30.300;2023-04-01T01:36:13;3.45;;;2.80;;
35917;SDS011;22011;59.912;30.300;2023-04-01T01:38:44;3.83;;;3.15;;
35917;SDS011;22011;59.912;30.300;2023-04-01T01:41:14;4.22;;;2.90;;
35917;SDS011;22011;59.912;30.300;2023-04-01T01:43:47;4.22;;;3.05;;
35917;SDS011;22011;59.912;30.300;2023-04-01T01:46:18;5.40;;;3.45;;
35917;SDS011;22011;59.912;30.300;2023-04-01T01:48:49;4.50;;;3.63;;
35917;SDS011;22011;59.912;30.300;2023-04-01T01:51:20;3.35;;;2.30;;
35917;SDS011;22011;59.912;30.300;2023-04-01T01:53:49;4.22;;;2.92;;
35917;SDS011;22011;59.912;30.300;2023-04-01T01:56:20;4.50;;;3.22;;
35917;SDS011;22011;59.912;30.300;2023-04-01T01:58:51;4.85;;;3.20;;
35917;SDS011;22011;59.912;30.300;2023-04-01T02:01:24;3.75;;;2.85;;
35917;SDS011;22011;59.912;30.300;2023-04-01T02:03:59;3.78;;;2.40;;
35917;SDS011;22011;59.912;30.300;2023-04-01T02:06:29;3.28;;;2.97;;
35917;SDS011;22011;59.912;30.300;2023-04-01T02:09:00;3.05;;;2.42;;
35917;SDS011;22011;59.912;30.300;2023-04-01T02:11:32;3.13;;;2.47;;
35917;SDS011;22011;59.912;30.300;2023-04-01T02:14:04;3.22;;;2.40;;
35917;SDS011;22011;59.912;30.300;2023-04-01T02:16:37;3.10;;;2.78;;
35917;SDS011;22011;59.912;30.300;2023-04-01T02:19:11;4.28;;;2.95;;
35917;SDS011;22011;59.912;30.300;2023-04-01T02:21:41;5.97;;;3.53;;
35917;SDS011;22011;59.912;30.300;2023-04-01T02:24:11;3.55;;;2.97;;
35917;SDS011;22011;59.912;30.300;2023-04-01T02:26:41;3.88;;;3.00;;
35917;SDS011;22011;59.912;30.300;2023-04-01T02:29:11;5.22;;;3.00;;
35917;SDS011;22011;59.912;30.300;2023-04-01T02:31:39;4.13;;;3.05;;
35917;SDS011;22011;59.912;30.300;2023-04-01T02:34:08;4.07;;;3.03;;
35917;SDS011;22011;59.912;30.300;2023-04-01T02:36:36;5.72;;;3.08;;
35917;SDS011;22011;59.912;30.300;2023-04-01T02:39:07;3.75;;;3.20;;
35917;SDS011;22011;59.912;30.300;2023-04-01T02:41:38;4.45;;;3.35;;
35917;SDS011;22011;59.912;30.300;2023-04-01T02:44:07;5.07;;;2.97;;
35917;SDS011;22011;59.912;30.300;2023-04-01T02:46:35;3.42;;;3.03;;
35917;SDS011;22011;59.912;30.300;2023-04-01T02:49:04;8.48;;;3.78;;
35917;SDS011;22011;59.912;30.300;2023-04-01T02:51:32;3.33;;;3.00;;
35917;SDS011;22011;59.912;30.300;2023-04-01T02:54:00;3.58;;;2.95;;
35917;SDS011;22011;59.912;30.300;2023-04-01T02:56:29;6.63;;;3.45;;
35917;SDS011;22011;59.912;30.300;2023-04-01T02:58:57;4.28;;;3.22;;
35917;SDS011;22011;59.912;30.300;2023-04-01T03:01:24;3.95;;;3.08;;
35917;SDS011;22011;59.912;30.300;2023-04-01T03:03:52;3.97;;;3.05;;
35917;SDS011;22011;59.912;30.300;2023-04-01T03:06:19;5.53;;;3.35;;
35917;SDS011;22011;59.912;30.300;2023-04-01T03:08:47;3.65;;;2.97;;
35917;SDS011;22011;59.912;30.300;2023-04-01T03:11:14;4.13;;;3.35;;
35917;SDS011;22011;59.912;30.300;2023-04-01T03:13:43;3.90;;;2.90;;
35917;SDS011;22011;59.912;30.300;2023-04-01T03:16:11;4.03;;;2.88;;
35917;SDS011;22011;59.912;30.300;2023-04-01T03:18:39;3.45;;;3.15;;
35917;SDS011;22011;59.912;30.300;2023-04-01T03:21:13;7.00;;;2.80;;
35917;SDS011;22011;59.912;30.300;2023-04-01T03:23:42;5.10;;;3.22;;
35917;SDS011;22011;59.912;30.300;2023-04-01T03:26:10;3.60;;;2.85;;
35917;SDS011;22011;59.912;30.300;2023-04-01T03:28:37;4.60;;;2.83;;
35917;SDS011;22011;59.912;30.300;2023-04-01T03:31:06;3.83;;;2.97;;
35917;SDS011;22011;59.912;30.300;2023-04-01T03:33:41;3.78;;;2.60;;
35917;SDS011;22011;59.912;30.300;2023-04-01T03:36:08;3.25;;;2.95;;
35917;SDS011;22011;59.912;30.300;2023-04-01T03:38:38;3.25;;;2.90;;
35917;SDS011;22011;59.912;30.300;2023-04-01T03:41:06;3.47;;;2.88;;
35917;SDS011;22011;59.912;30.300;2023-04-01T03:43:38;3.40;;;2.40;;
35917;SDS011;22011;59.912;30.300;2023-04-01T03:46:07;2.97;;;2.30;;
35917;SDS011;22011;59.912;30.300;2023-04-01T03:48:34;3.45;;;2.42;;
35917;SDS011;22011;59.912;30.300;2023-04-01T03:51:06;5.20;;;3.05;;
35917;SDS011;22011;59.912;30.300;2023-04-01T03:53:33;3.00;;;2.70;;
35917;SDS011;22011;59.912;30.300;2023-04-01T03:56:04;3.85;;;2.60;;
35917;SDS011;22011;59.912;30.300;2023-04-01T03:58:35;3.60;;;2.90;;
35917;SDS011;22011;59.912;30.300;2023-04-01T04:01:14;3.20;;;2.35;;
35917;SDS011;22011;59.912;30.300;2023-04-01T04:03:47;2.88;;;2.55;;
35917;SDS011;22011;59.912;30.300;2023-04-01T04:06:16;4.07;;;3.15;;
35917;SDS011;22011;59.912;30.300;2023-04-01T04:08:44;2.90;;;2.55;;
35917;SDS011;22011;59.912;30.300;2023-04-01T04:11:12;4.07;;;2.95;;
35917;SDS011;22011;59.912;30.300;2023-04-01T04:13:42;3.03;;;2.35;;
35917;SDS011;22011;59.912;30.300;2023-04-01T04:16:10;3.10;;;2.53;;
35917;SDS011;22011;59.912;30.300;2023-04-01T04:18:45;3.83;;;3.20;;
35917;SDS011;22011;59.912;30.300;2023-04-01T04:21:13;4.15;;;2.80;;
35917;SDS011;22011;59.912;30.300;2023-04-01T04:23:42;3.50;;;3.03;;
35917;SDS011;22011;59.912;30.300;2023-04-01T04:26:13;3.55;;;2.65;;
35917;SDS011;22011;59.912;30.300;2023-04-01T04:28:45;2.90;;;2.33;;
35917;SDS011;22011;59.912;30.300;2023-04-01T04:31:17;4.32;;;2.75;;
35917;SDS011;22011;59.912;30.300;2023-04-01T04:33:48;3.83;;;2.63;;
35917;SDS011;22011;59.912;30.300;2023-04-01T04:36:15;3.53;;;2.60;;
35917;SDS011;22011;59.912;30.300;2023-04-01T04:38:43;2.80;;;2.45;;
35917;SDS011;22011;59.912;30.300;2023-04-01T04:41:11;3.33;;;2.78;;
35917;SDS011;22011;59.912;30.300;2023-04-01T04:43:41;2.58;;;2.13;;
35917;SDS011;22011;59.912;30.300;2023-04-01T04:46:10;3.08;;;2.17;;
35917;SDS011;22011;59.912;30.300;2023-04-01T04:48:38;2.65;;;2.20;;
35917;SDS011;22011;59.912;30.300;2023-04-01T04:51:07;3.90;;;2.25;;
35917;SDS011;22011;59.912;30.300;2023-04-01T04:53:35;3.88;;;2.28;;
35917;SDS011;22011;59.912;30.300;2023-04-01T04:56:02;3.58;;;2.10;;
35917;SDS011;22011;59.912;30.300;2023-04-01T04:58:41;4.68;;;2.20;;
35917;SDS011;22011;59.912;30.300;2023-04-01T05:01:14;3.58;;;2.47;;
35917;SDS011;22011;59.912;30.300;2023-04-01T05:03:43;3.08;;;2.38;;
35917;SDS011;22011;59.912;30.300;2023-04-01T05:06:13;4.30;;;2.30;;
35917;SDS011;22011;59.912;30.300;2023-04-01T05:08:43;3.25;;;2.30;;
35917;SDS011;22011;59.912;30.300;2023-04-01T05:11:12;3.85;;;2.42;;
35917;SDS011;22011;59.912;30.300;2023-04-01T05:13:43;3.92;;;2.33;;
35917;SDS011;22011;59.912;30.300;2023-04-01T05:16:13;3.63;;;2.10;;
35917;SDS011;22011;59.912;30.300;2023-04-01T05:18:42;3.90;;;2.60;;
35917;SDS011;22011;59.912;30.300;2023-04-01T05:21:15;2.75;;;2.28;;
35917;SDS011;22011;59.912;30.300;2023-04-01T05:23:43;3.17;;;2.10;;
35917;SDS011;22011;59.912;30.300;2023-04-01T05:26:12;4.25;;;2.20;;
35917;SDS011;22011;59.912;30.300;2023-04-01T05:28:41;3.70;;;2.03;;
35917;SDS011;22011;59.912;30.300;2023-04-01T05:31:09;2.50;;;1.95;;
35917;SDS011;22011;59.912;30.300;2023-04-01T05:33:39;2.80;;;2.10;;
35917;SDS011;22011;59.912;30.300;2023-04-01T05:36:07;2.78;;;2.45;;
35917;SDS011;22011;59.912;30.300;2023-04-01T05:38:38;3.25;;;2.45;;
35917;SDS011;22011;59.912;30.300;2023-04-01T05:41:09;2.97;;;2.22;;
35917;SDS011;22011;59.912;30.300;2023-04-01T05:43:41;3.63;;;2.28;;
35917;SDS011;22011;59.912;30.300;2023-04-01T05:46:32;4.38;;;2.70;;
35917;SDS011;22011;59.912;30.300;2023-04-01T05:49:10;3.30;;;2.17;;
35917;SDS011;22011;59.912;30.300;2023-04-01T05:51:38;4.25;;;1.90;;
35917;SDS011;22011;59.912;30.300;2023-04-01T05:54:07;4.65;;;2.22;;
35917;SDS011;22011;59.912;30.300;2023-04-01T05:56:37;5.10;;;2.50;;
35917;SDS011;22011;59.912;30.300;2023-04-01T05:59:05;4.05;;;2.63;;
35917;SDS011;22011;59.912;30.300;2023-04-01T06:01:33;2.97;;;2.45;;
35917;SDS011;22011;59.912;30.300;2023-04-01T06:04:01;4.57;;;2.58;;
35917;SDS011;22011;59.912;30.300;2023-04-01T06:06:30;2.83;;;2.33;;
35917;SDS011;22011;59.912;30.300;2023-04-01T06:09:12;2.97;;;2.10;;
35917;SDS011;22011;59.912;30.300;2023-04-01T06:11:51;3.40;;;2.35;;
35917;SDS011;22011;59.912;30.300;2023-04-01T06:14:36;4.57;;;2.45;;
35917;SDS011;22011;59.912;30.300;2023-04-01T06:17:20;4.38;;;2.38;;
35917;SDS011;22011;59.912;30.300;2023-04-01T06:19:58;6.53;;;2.90;;
35917;SDS011;22011;59.912;30.300;2023-04-01T06:22:35;3.88;;;2.58;;
35917;SDS011;22011;59.912;30.300;2023-04-01T06:31:14;3.47;;;2.15;;
35917;SDS011;22011;59.912;30.300;2023-04-01T06:34:04;3.60;;;2.20;;
35917;SDS011;22011;59.912;30.300;2023-04-01T06:36:57;3.72;;;1.95;;
35917;SDS011;22011;59.912;30.300;2023-04-01T06:39:52;4.43;;;2.15;;
35917;SDS011;22011;59.912;30.300;2023-04-01T06:42:47;4.45;;;2.60;;
35917;SDS011;22011;59.912;30.300;2023-04-01T06:45:46;3.20;;;2.20;;
35917;SDS011;22011;59.912;30.300;2023-04-01T06:48:44;6.18;;;2.22;;
35917;SDS011;22011;59.912;30.300;2023-04-01T06:51:44;5.53;;;2.03;;
35917;SDS011;22011;59.912;30.300;2023-04-01T06:54:38;3.50;;;2.60;;
35917;SDS011;22011;59.912;30.300;2023-04-01T06:57:29;4.88;;;2.25;;
35917;SDS011;22011;59.912;30.300;2023-04-01T07:00:04;4.05;;;2.70;;
35917;SDS011;22011;59.912;30.300;2023-04-01T07:02:41;5.75;;;2.78;;
35917;SDS011;22011;59.912;30.300;2023-04-01T07:05:13;2.53;;;2.22;;
35917;SDS011;22011;59.912;30.300;2023-04-01T07:07:43;7.82;;;2.88;;
35917;SDS011;22011;59.912;30.300;2023-04-01T07:10:15;10.10;;;2.45;;
35917;SDS011;22011;59.912;30.300;2023-04-01T07:13:20;8.63;;;2.95;;
35917;SDS011;22011;59.912;30.300;2023-04-01T07:15:59;5.00;;;2.58;;
35917;SDS011;22011;59.912;30.300;2023-04-01T07:18:39;3.72;;;2.78;;
35917;SDS011;22011;59.912;30.300;2023-04-01T07:21:14;3.47;;;2.55;;
35917;SDS011;22011;59.912;30.300;2023-04-01T07:24:01;3.72;;;2.42;;
35917;SDS011;22011;59.912;30.300;2023-04-01T07:26:37;3.38;;;2.65;;
35917;SDS011;22011;59.912;30.300;2023-04-01T07:29:05;5.72;;;2.70;;
35917;SDS011;22011;59.912;30.300;2023-04-01T07:31:58;4.82;;;3.10;;
35917;SDS011;22011;59.912;30.300;2023-04-01T07:34:47;3.15;;;2.47;;
35917;SDS011;22011;59.912;30.300;2023-04-01T07:37:25;11.98;;;1.95;;
35917;SDS011;22011;59.912;30.300;2023-04-01T07:40:01;3.53;;;2.53;;
35917;SDS011;22011;59.912;30.300;2023-04-01T07:42:43;2.47;;;2.22;;
35917;SDS011;22011;59.912;30.300;2023-04-01T07:45:21;5.30;;;2.25;;
35917;SDS011;22011;59.912;30.300;2023-04-01T07:48:06;10.80;;;2.10;;
35917;SDS011;22011;59.912;30.300;2023-04-01T07:50:46;3.83;;;1.90;;
35917;SDS011;22011;59.912;30.300;2023-04-01T07:53:21;2.88;;;2.58;;
35917;SDS011;22011;59.912;30.300;2023-04-01T07:56:00;2.20;;;2.00;;
35917;SDS011;22011;59.912;30.300;2023-04-01T07:58:37;3.03;;;2.20;;
35917;SDS011;22011;59.912;30.300;2023-04-01T08:01:30;5.63;;;2.30;;
35917;SDS011;22011;59.912;30.300;2023-04-01T08:04:21;2.50;;;2.30;;
35917;SDS011;22011;59.912;30.300;2023-04-01T08:06:58;3.33;;;2.08;;
35917;SDS011;22011;59.912;30.300;2023-04-01T08:09:37;3.40;;;2.47;;
35917;SDS011;22011;59.912;30.300;2023-04-01T08:12:32;2.30;;;1.85;;
35917;SDS011;22011;59.912;30.300;2023-04-01T08:15:28;3.20;;;2.30;;
35917;SDS011;22011;59.912;30.300;2023-04-01T08:18:12;4.57;;;2.17;;
35917;SDS011;22011;59.912;30.300;2023-04-01T08:20:50;2.47;;;2.20;;
35917;SDS011;22011;59.912;30.300;2023-04-01T08:23:24;3.40;;;2.10;;
35917;SDS011;22011;59.912;30.300;2023-04-01T08:25:57;2.10;;;1.90;;
35917;SDS011;22011;59.912;30.300;2023-04-01T08:28:37;6.28;;;2.85;;
35917;SDS011;22011;59.912;30.300;2023-04-01T08:31:12;5.53;;;2.58;;
35917;SDS011;22011;59.912;30.300;2023-04-01T08:33:45;4.07;;;2.03;;
35917;SDS011;22011;59.912;30.300;2023-04-01T08:36:16;2.93;;;2.50;;
35917;SDS011;22011;59.912;30.300;2023-04-01T08:38:59;3.28;;;2.45;;
35917;SDS011;22011;59.912;30.300;2023-04-01T08:41:39;5.13;;;2.08;;
35917;SDS011;22011;59.912;30.300;2023-04-01T08:48:12;5.03;;;2.75;;
35917;SDS011;22011;59.912;30.300;2023-04-01T08:51:04;3.15;;;2.00;;
35917;SDS011;22011;59.912;30.300;2023-04-01T08:53:49;2.22;;;2.03;;
35917;SDS011;22011;59.912;30.300;2023-04-01T08:56:29;2.45;;;2.22;;
35917;SDS011;22011;59.912;30.300;2023-04-01T08:59:08;4.18;;;1.80;;
35917;SDS011;22011;59.912;30.300;2023-04-01T09:01:48;6.28;;;2.20;;
35917;SDS011;22011;59.912;30.300;2023-04-01T09:05:26;4.95;;;2.13;;
35917;SDS011;22011;59.912;30.300;2023-04-01T09:08:15;6.10;;;1.80;;
35917;SDS011;22011;59.912;30.300;2023-04-01T09:10:58;8.77;;;2.13;;
35917;SDS011;22011;59.912;30.300;2023-04-01T09:13:55;5.65;;;2.10;;
35917;SDS011;22011;59.912;30.300;2023-04-01T09:19:46;7.35;;;3.25;;
35917;SDS011;22011;59.912;30.300;2023-04-01T09:22:39;4.25;;;2.17;;
35917;SDS011;22011;59.912;30.300;2023-04-01T09:28:17;3.25;;;2.10;;
35917;SDS011;22011;59.912;30.300;2023-04-01T09:37:08;2.10;;;1.88;;
35917;SDS011;22011;59.912;30.300;2023-04-01T09:39:54;2.47;;;1.85;;
35917;SDS011;22011;59.912;30.300;2023-04-01T09:42:42;3.80;;;2.17;;
35917;SDS011;22011;59.912;30.300;2023-04-01T09:45:33;5.22;;;2.00;;
35917;SDS011;22011;59.912;30.300;2023-04-01T09:48:14;2.80;;;1.90;;
35917;SDS011;22011;59.912;30.300;2023-04-01T09:50:50;4.67;;;2.53;;
35917;SDS011;22011;59.912;30.300;2023-04-01T09:53:28;2.85;;;2.15;;
35917;SDS011;22011;59.912;30.300;2023-04-01T09:59:38;3.30;;;2.50;;
35917;SDS011;22011;59.912;30.300;2023-04-01T10:21:22;2.78;;;2.38;;
35917;SDS011;22011;59.912;30.300;2023-04-01T10:24:24;3.05;;;1.90;;
35917;SDS011;22011;59.912;30.300;2023-04-01T10:34:13;4.00;;;2.67;;
35917;SDS011;22011;59.912;30.300;2023-04-01T10:37:03;9.48;;;2.30;;
35917;SDS011;22011;59.912;30.300;2023-04-01T10:39:58;6.10;;;2.75;;
35917;SDS011;22011;59.912;30.300;2023-04-01T10:43:27;3.47;;;2.20;;
35917;SDS011;22011;59.912;30.300;2023-04-01T10:46:55;3.38;;;2.50;;
35917;SDS011;22011;59.912;30.300;2023-04-01T10:50:01;3.70;;;2.40;;
35917;SDS011;22011;59.912;30.300;2023-04-01T10:59:36;3.20;;;2.15;;
35917;SDS011;22011;59.912;30.300;2023-04-01T11:06:13;4.25;;;2.40;;
35917;SDS011;22011;59.912;30.300;2023-04-01T11:25:06;2.60;;;2.40;;
35917;SDS011;22011;59.912;30.300;2023-04-01T11:27:59;3.15;;;2.47;;
35917;SDS011;22011;59.912;30.300;2023-04-01T11:30:58;3.33;;;2.30;;
35917;SDS011;22011;59.912;30.300;2023-04-01T11:33:39;4.32;;;2.25;;
35917;SDS011;22011;59.912;30.300;2023-04-01T11:36:20;2.97;;;2.53;;
35917;SDS011;22011;59.912;30.300;2023-04-01T11:39:11;6.45;;;3.05;;
35917;SDS011;22011;59.912;30.300;2023-04-01T11:42:14;3.33;;;2.72;;
35917;SDS011;22011;59.912;30.300;2023-04-01T11:45:10;3.42;;;3.05;;
35917;SDS011;22011;59.912;30.300;2023-04-01T11:47:55;3.67;;;2.75;;
35917;SDS011;22011;59.912;30.300;2023-04-01T11:50:39;3.20;;;2.72;;
35917;SDS011;22011;59.912;30.300;2023-04-01T11:53:26;3.08;;;2.70;;
35917;SDS011;22011;59.912;30.300;2023-04-01T11:59:08;3.75;;;2.80;;
35917;SDS011;22011;59.912;30.300;2023-04-01T12:02:08;4.85;;;2.60;;
35917;SDS011;22011;59.912;30.300;2023-04-01T12:07:50;6.88;;;3.15;;
35917;SDS011;22011;59.912;30.300;2023-04-01T12:10:33;6.53;;;2.55;;
35917;SDS011;22011;59.912;30.300;2023-04-01T12:13:09;5.05;;;2.60;;
35917;SDS011;22011;59.912;30.300;2023-04-01T12:15:57;3.45;;;2.58;;
35917;SDS011;22011;59.912;30.300;2023-04-01T12:18:35;3.45;;;2.90;;
35917;SDS011;22011;59.912;30.300;2023-04-01T12:21:14;3.63;;;2.80;;
35917;SDS011;22011;59.912;30.300;2023-04-01T12:26:52;3.97;;;2.40;;
35917;SDS011;22011;59.912;30.300;2023-04-01T12:29:37;4.80;;;2.72;;
35917;SDS011;22011;59.912;30.300;2023-04-01T12:32:21;3.08;;;2.30;;
35917;SDS011;22011;59.912;30.300;2023-04-01T12:35:03;2.95;;;2.28;;
35917;SDS011;22011;59.912;30.300;2023-04-01T12:37:46;3.92;;;3.28;;
35917;SDS011;22011;59.912;30.300;2023-04-01T12:40:24;5.30;;;3.63;;
35917;SDS011;22011;59.912;30.300;2023-04-01T12:43:17;4.13;;;2.85;;
35917;SDS011;22011;59.912;30.300;2023-04-01T12:46:11;8.18;;;3.00;;
35917;SDS011;22011;59.912;30.300;2023-04-01T12:48:50;6.45;;;3.33;;
35917;SDS011;22011;59.912;30.300;2023-04-01T12:51:50;5.60;;;2.90;;
35917;SDS011;22011;59.912;30.300;2023-04-01T12:54:36;4.10;;;2.70;;
35917;SDS011;22011;59.912;30.300;2023-04-01T12:57:45;4.32;;;3.33;;
35917;SDS011;22011;59.912;30.300;2023-04-01T13:00:39;4.25;;;2.90;;
35917;SDS011;22011;59.912;30.300;2023-04-01T13:03:21;4.85;;;2.72;;
35917;SDS011;22011;59.912;30.300;2023-04-01T13:06:13;3.00;;;2.65;;
35917;SDS011;22011;59.912;30.300;2023-04-01T13:08:57;8.30;;;3.05;;
35917;SDS011;22011;59.912;30.300;2023-04-01T13:11:36;5.45;;;3.30;;
35917;SDS011;22011;59.912;30.300;2023-04-01T13:17:22;4.20;;;3.22;;
35917;SDS011;22011;59.912;30.300;2023-04-01T13:19:58;6.45;;;2.90;;
35917;SDS011;22011;59.912;30.300;2023-04-01T13:22:40;4.93;;;2.97;;
35917;SDS011;22011;59.912;30.300;2023-04-01T13:25:20;4.68;;;2.95;;
35917;SDS011;22011;59.912;30.300;2023-04-01T13:27:56;3.38;;;3.00;;
35917;SDS011;22011;59.912;30.300;2023-04-01T13:30:32;5.13;;;3.20;;
35917;SDS011;22011;59.912;30.300;2023-04-01T13:33:04;3.88;;;2.80;;
35917;SDS011;22011;59.912;30.300;2023-04-01T13:35:42;5.57;;;3.63;;
35917;SDS011;22011;59.912;30.300;2023-04-01T13:38:31;6.57;;;3.33;;
35917;SDS011;22011;59.912;30.300;2023-04-01T13:41:26;5.82;;;3.40;;
35917;SDS011;22011;59.912;30.300;2023-04-01T13:44:09;4.03;;;2.92;;
35917;SDS011;22011;59.912;30.300;2023-04-01T13:46:51;5.30;;;2.75;;
35917;SDS011;22011;59.912;30.300;2023-04-01T13:49:41;3.72;;;2.67;;
35917;SDS011;22011;59.912;30.300;2023-04-01T13:52:33;3.10;;;2.67;;
35917;SDS011;22011;59.912;30.300;2023-04-01T13:55:22;4.03;;;2.10;;
35917;SDS011;22011;59.912;30.300;2023-04-01T14:00:50;2.75;;;1.58;;
35917;SDS011;22011;59.912;30.300;2023-04-01T14:03:37;3.35;;;1.60;;
35917;SDS011;22011;59.912;30.300;2023-04-01T14:06:21;1.80;;;1.42;;
35917;SDS011;22011;59.912;30.300;2023-04-01T14:08:59;3.50;;;2.00;;
35917;SDS011;22011;59.912;30.300;2023-04-01T14:11:45;2.72;;;1.80;;
35917;SDS011;22011;59.912;30.300;2023-04-01T14:14:22;1.95;;;1.55;;
35917;SDS011;22011;59.912;30.300;2023-04-01T14:17:02;2.88;;;2.17;;
35917;SDS011;22011;59.912;30.300;2023-04-01T14:22:38;2.58;;;1.55;;
35917;SDS011;22011;59.912;30.300;2023-04-01T14:25:20;4.15;;;2.45;;
35917;SDS011;22011;59.912;30.300;2023-04-01T14:28:10;1.77;;;1.40;;
35917;SDS011;22011;59.912;30.300;2023-04-01T14:30:50;3.42;;;1.65;;
35917;SDS011;22011;59.912;30.300;2023-04-01T14:33:34;2.78;;;1.48;;
35917;SDS011;22011;59.912;30.300;2023-04-01T14:36:16;5.45;;;1.40;;
35917;SDS011;22011;59.912;30.300;2023-04-01T14:39:00;6.47;;;1.33;;
35917;SDS011;22011;59.912;30.300;2023-04-01T14:41:44;0.98;;;0.90;;
35917;SDS011;22011;59.912;30.300;2023-04-01T14:47:27;1.73;;;0.77;;
35917;SDS011;22011;59.912;30.300;2023-04-01T14:50:07;1.73;;;0.77;;
35917;SDS011;22011;59.912;30.300;2023-04-01T14:52:41;2.08;;;0.82;;
35917;SDS011;22011;59.912;30.300;2023-04-01T14:55:19;1.85;;;0.60;;
35917;SDS011;22011;59.912;30.300;2023-04-01T14:57:58;4.70;;;0.75;;
35917;SDS011;22011;59.912;30.300;2023-04-01T15:00:26;0.70;;;0.60;;
35917;SDS011;22011;59.912;30.300;2023-04-01T15:03:11;1.52;;;0.88;;
35917;SDS011;22011;59.912;30.300;2023-04-01T15:05:46;0.98;;;0.85;;
35917;SDS011;22011;59.912;30.300;2023-04-01T15:08:20;2.35;;;1.05;;
35917;SDS011;22011;59.912;30.300;2023-04-01T15:10:58;0.88;;;0.80;;
35917;SDS011;22011;59.912;30.300;2023-04-01T15:13:52;1.63;;;1.00;;
35917;SDS011;22011;59.912;30.300;2023-04-01T15:16:30;0.60;;;0.60;;
35917;SDS011;22011;59.912;30.300;2023-04-01T15:19:14;1.73;;;0.77;;
35917;SDS011;22011;59.912;30.300;2023-04-01T15:21:54;2.00;;;0.80;;
35917;SDS011;22011;59.912;30.300;2023-04-01T15:24:35;3.55;;;1.00;;
35917;SDS011;22011;59.912;30.300;2023-04-01T15:27:16;1.30;;;0.70;;
35917;SDS011;22011;59.912;30.300;2023-04-01T15:29:56;1.50;;;1.00;;
35917;SDS011;22011;59.912;30.300;2023-04-01T15:32:37;1.73;;;0.70;;
35917;SDS011;22011;59.912;30.300;2023-04-01T15:35:19;3.60;;;1.10;;
35917;SDS011;22011;59.912;30.300;2023-04-01T15:37:55;1.25;;;0.82;;
35917;SDS011;22011;59.912;30.300;2023-04-01T15:40:27;1.10;;;0.90;;
35917;SDS011;22011;59.912;30.300;2023-04-01T15:43:01;0.98;;;0.80;;
35917;SDS011;22011;59.912;30.300;2023-04-01T15:45:51;2.42;;;0.80;;
35917;SDS011;22011;59.912;30.300;2023-04-01T15:48:35;6.18;;;0.82;;
35917;SDS011;22011;59.912;30.300;2023-04-01T15:51:18;2.63;;;0.90;;
35917;SDS011;22011;59.912;30.300;2023-04-01T15:57:14;1.50;;;0.90;;
35917;SDS011;22011;59.912;30.300;2023-04-01T15:59:53;1.00;;;0.60;;
35917;SDS011;22011;59.912;30.300;2023-04-01T16:02:43;0.75;;;0.60;;
35917;SDS011;22011;59.912;30.300;2023-04-01T16:08:11;0.77;;;0.60;;
35917;SDS011;22011;59.912;30.300;2023-04-01T16:10:58;1.27;;;0.63;;
35917;SDS011;22011;59.912;30.300;2023-04-01T16:13:43;1.98;;;0.80;;
35917;SDS011;22011;59.912;30.300;2023-04-01T16:19:20;2.20;;;1.20;;
35917;SDS011;22011;59.912;30.300;2023-04-01T16:24:38;2.60;;;1.30;;
35917;SDS011;22011;59.912;30.300;2023-04-01T16:27:12;1.65;;;0.75;;
35917;SDS011;22011;59.912;30.300;2023-04-01T16:29:46;1.38;;;0.80;;
35917;SDS011;22011;59.912;30.300;2023-04-01T16:32:27;1.70;;;0.75;;
35917;SDS011;22011;59.912;30.300;2023-04-01T16:35:03;2.00;;;0.75;;
35917;SDS011;22011;59.912;30.300;2023-04-01T16:37:48;2.65;;;1.00;;
35917;SDS011;22011;59.912;30.300;2023-04-01T16:40:22;1.90;;;0.98;;
35917;SDS011;22011;59.912;30.300;2023-04-01T16:43:05;2.03;;;1.00;;
35917;SDS011;22011;59.912;30.300;2023-04-01T16:45:39;2.08;;;1.10;;
35917;SDS011;22011;59.912;30.300;2023-04-01T16:48:15;4.68;;;1.23;;
35917;SDS011;22011;59.912;30.300;2023-04-01T16:50:49;2.85;;;1.27;;
35917;SDS011;22011;59.912;30.300;2023-04-01T16:53:34;3.33;;;1.35;;
35917;SDS011;22011;59.912;30.300;2023-04-01T16:56:11;2.60;;;1.10;;
35917;SDS011;22011;59.912;30.300;2023-04-01T16:58:48;2.22;;;1.27;;
35917;SDS011;22011;59.912;30.300;2023-04-01T17:01:27;1.77;;;1.13;;
35917;SDS011;22011;59.912;30.300;2023-04-01T17:03:58;4.22;;;1.30;;
35917;SDS011;22011;59.912;30.300;2023-04-01T17:06:35;1.55;;;1.15;;
35917;SDS011;22011;59.912;30.300;2023-04-01T17:09:17;3.70;;;1.70;;
35917;SDS011;22011;59.912;30.300;2023-04-01T17:11:59;1.88;;;1.23;;
35917;SDS011;22011;59.912;30.300;2023-04-01T17:20:00;2.15;;;1.33;;
35917;SDS011;22011;59.912;30.300;2023-04-01T17:22:44;2.03;;;1.35;;
35917;SDS011;22011;59.912;30.300;2023-04-01T17:25:21;2.15;;;1.30;;
35917;SDS011;22011;59.912;30.300;2023-04-01T17:28:05;2.45;;;1.48;;
35917;SDS011;22011;59.912;30.300;2023-04-01T17:30:43;2.33;;;1.55;;
35917;SDS011;22011;59.912;30.300;2023-04-01T17:33:22;3.97;;;1.40;;
35917;SDS011;22011;59.912;30.300;2023-04-01T17:35:58;2.03;;;1.47;;
35917;SDS011;22011;59.912;30.300;2023-04-01T17:38:39;3.70;;;1.77;;